Aérodrome :
LOGIN :

S'inscrire | Disclaimer

   EN    FR    IT 

 










Légende :    VFR   VFR Marginal   IFR   IFR Intensif   IFR Très Intensif
Visi : 
Plafond : 
>= 8 km
>= 3000ft
5 à 8 km
1000 à 3000 ft
1500m à 5 km
500 à 1000 ft
800 à 1500m
200 à 500 ft
< 800m
< 200 ft
Symboles :   Orages  Brouillard  Fortes neiges  Fortes précipitations  Vent > 20 kt
SIGMETs :   Divers  Orages  Givrage  Turbulence  Onde Orograph.  Cendres Volcan.







- Altitude de l'aérodrome : 124 ft
- Code IATA : AVN
- Voir les cartes d'approche


LFMV - Avignon Caumont

DERNIER METAR :
  • 292100Z AUTO 12004KT CAVOK 10/07 Q1015

METARs EXPIRÉS :
  • 292030Z AUTO 15003KT CAVOK 11/07 Q1015
  • 292000Z AUTO 17005KT CAVOK 11/07 Q1014 NOSIG
  • 291930Z AUTO 17007KT CAVOK 11/06 Q1014 NOSIG
  • 291900Z AUTO 20006KT CAVOK 12/05 Q1014 NOSIG
  • 291830Z AUTO 19009KT CAVOK 14/04 Q1014 NOSIG

TAF TAF LFMV
Valide du 29 à 15h jusqu'au 30 à 15h UTC


291400Z 2915/3015 20010KT CAVOK
TEMPO 2921/3006 13007KT
BECMG 3006/3009 15015G30KT
ATIS : +33 4 90 84 32 84
Pas de NOTAMs connus pour ce terrain.



MET'MAP, la Météo Aéronautique d'un coup d'oeil ! - Copyright ORBIFLY Décembre 2007 - Disclaimer

ORBIFLY MET'MAP TEAM :

Programmation & Développement : Alexandra Zaïnal
Conception & Développement : Baudouin d'Aumeries
Co-Programmation & Développement : Marc-Olivier Méhu
Soutien technique & logistique : Manuel Goepfert

Contact : metmap@orbifly.com




SOURCES & CREDITS :

   NOAA